sensor_id;sensor_type;location;lat;lon;timestamp;P1;durP1;ratioP1;P2;durP2;ratioP2
4638;SDS011;2332;38.646;-9.154;2024-01-15T00:00:38;86.23;;;10.00;;
4638;SDS011;2332;38.646;-9.154;2024-01-15T00:03:03;71.13;;;10.40;;
4638;SDS011;2332;38.646;-9.154;2024-01-15T00:05:29;97.43;;;10.00;;
4638;SDS011;2332;38.646;-9.154;2024-01-15T00:07:54;67.73;;;12.33;;
4638;SDS011;2332;38.646;-9.154;2024-01-15T00:10:20;73.10;;;9.53;;
4638;SDS011;2332;38.646;-9.154;2024-01-15T00:12:45;82.63;;;10.30;;
4638;SDS011;2332;38.646;-9.154;2024-01-15T00:15:10;101.17;;;10.57;;
4638;SDS011;2332;38.646;-9.154;2024-01-15T00:17:36;81.60;;;10.07;;
4638;SDS011;2332;38.646;-9.154;2024-01-15T00:20:01;69.33;;;10.30;;
4638;SDS011;2332;38.646;-9.154;2024-01-15T00:22:27;61.73;;;8.50;;
4638;SDS011;2332;38.646;-9.154;2024-01-15T00:24:52;72.93;;;9.03;;
4638;SDS011;2332;38.646;-9.154;2024-01-15T00:27:17;67.97;;;10.47;;
4638;SDS011;2332;38.646;-9.154;2024-01-15T00:29:43;80.43;;;10.73;;
4638;SDS011;2332;38.646;-9.154;2024-01-15T00:32:08;84.17;;;10.33;;
4638;SDS011;2332;38.646;-9.154;2024-01-15T00:34:36;77.20;;;10.07;;
4638;SDS011;2332;38.646;-9.154;2024-01-15T00:37:02;88.60;;;11.10;;
4638;SDS011;2332;38.646;-9.154;2024-01-15T00:39:28;91.33;;;10.93;;
4638;SDS011;2332;38.646;-9.154;2024-01-15T00:41:53;92.63;;;11.20;;
4638;SDS011;2332;38.646;-9.154;2024-01-15T00:44:18;80.23;;;11.50;;
4638;SDS011;2332;38.646;-9.154;2024-01-15T00:46:44;89.90;;;10.83;;
4638;SDS011;2332;38.646;-9.154;2024-01-15T00:49:10;81.10;;;11.23;;
4638;SDS011;2332;38.646;-9.154;2024-01-15T00:51:36;78.23;;;10.33;;
4638;SDS011;2332;38.646;-9.154;2024-01-15T00:54:02;86.27;;;11.10;;
4638;SDS011;2332;38.646;-9.154;2024-01-15T00:56:27;66.23;;;9.87;;
4638;SDS011;2332;38.646;-9.154;2024-01-15T00:58:53;65.50;;;8.23;;
4638;SDS011;2332;38.646;-9.154;2024-01-15T01:01:18;57.90;;;8.10;;
4638;SDS011;2332;38.646;-9.154;2024-01-15T01:03:43;72.90;;;11.13;;
4638;SDS011;2332;38.646;-9.154;2024-01-15T01:06:09;76.40;;;10.43;;
4638;SDS011;2332;38.646;-9.154;2024-01-15T01:08:34;81.87;;;11.03;;
4638;SDS011;2332;38.646;-9.154;2024-01-15T01:10:59;63.97;;;10.63;;
4638;SDS011;2332;38.646;-9.154;2024-01-15T01:13:25;70.40;;;9.23;;
4638;SDS011;2332;38.646;-9.154;2024-01-15T01:15:50;85.07;;;9.60;;
4638;SDS011;2332;38.646;-9.154;2024-01-15T01:18:16;86.87;;;10.70;;
4638;SDS011;2332;38.646;-9.154;2024-01-15T01:20:41;62.83;;;8.47;;
4638;SDS011;2332;38.646;-9.154;2024-01-15T01:23:07;70.30;;;10.43;;
4638;SDS011;2332;38.646;-9.154;2024-01-15T01:25:32;72.43;;;9.00;;
4638;SDS011;2332;38.646;-9.154;2024-01-15T01:27:57;78.63;;;9.63;;
4638;SDS011;2332;38.646;-9.154;2024-01-15T01:30:23;65.37;;;10.40;;
4638;SDS011;2332;38.646;-9.154;2024-01-15T01:32:48;73.17;;;9.50;;
4638;SDS011;2332;38.646;-9.154;2024-01-15T01:35:14;55.13;;;9.37;;
4638;SDS011;2332;38.646;-9.154;2024-01-15T01:37:39;69.17;;;9.40;;
4638;SDS011;2332;38.646;-9.154;2024-01-15T01:40:05;72.77;;;9.27;;
4638;SDS011;2332;38.646;-9.154;2024-01-15T01:42:30;78.67;;;7.97;;
4638;SDS011;2332;38.646;-9.154;2024-01-15T01:44:56;51.40;;;7.53;;
4638;SDS011;2332;38.646;-9.154;2024-01-15T01:47:21;60.10;;;7.93;;
4638;SDS011;2332;38.646;-9.154;2024-01-15T01:49:46;57.43;;;8.80;;
4638;SDS011;2332;38.646;-9.154;2024-01-15T01:52:12;68.77;;;8.30;;
4638;SDS011;2332;38.646;-9.154;2024-01-15T01:54:38;61.73;;;9.07;;
4638;SDS011;2332;38.646;-9.154;2024-01-15T01:57:05;93.70;;;9.13;;
4638;SDS011;2332;38.646;-9.154;2024-01-15T01:59:31;54.57;;;7.30;;
4638;SDS011;2332;38.646;-9.154;2024-01-15T02:01:57;66.17;;;9.47;;
4638;SDS011;2332;38.646;-9.154;2024-01-15T02:04:23;78.87;;;8.47;;
4638;SDS011;2332;38.646;-9.154;2024-01-15T02:06:49;59.73;;;8.63;;
4638;SDS011;2332;38.646;-9.154;2024-01-15T02:09:15;60.77;;;8.90;;
4638;SDS011;2332;38.646;-9.154;2024-01-15T02:11:41;43.67;;;7.57;;
4638;SDS011;2332;38.646;-9.154;2024-01-15T02:14:06;55.93;;;8.70;;
4638;SDS011;2332;38.646;-9.154;2024-01-15T02:16:32;64.30;;;6.40;;
4638;SDS011;2332;38.646;-9.154;2024-01-15T02:18:57;41.40;;;6.80;;
4638;SDS011;2332;38.646;-9.154;2024-01-15T02:21:22;58.67;;;8.23;;
4638;SDS011;2332;38.646;-9.154;2024-01-15T02:23:48;55.40;;;6.60;;
4638;SDS011;2332;38.646;-9.154;2024-01-15T02:26:13;59.07;;;7.47;;
4638;SDS011;2332;38.646;-9.154;2024-01-15T02:28:39;64.43;;;7.03;;
4638;SDS011;2332;38.646;-9.154;2024-01-15T02:31:06;67.87;;;9.00;;
4638;SDS011;2332;38.646;-9.154;2024-01-15T02:33:31;58.43;;;8.20;;
4638;SDS011;2332;38.646;-9.154;2024-01-15T02:35:57;48.80;;;7.57;;
4638;SDS011;2332;38.646;-9.154;2024-01-15T02:38:22;61.17;;;8.40;;
4638;SDS011;2332;38.646;-9.154;2024-01-15T02:40:49;49.83;;;6.10;;
4638;SDS011;2332;38.646;-9.154;2024-01-15T02:43:14;49.07;;;7.10;;
4638;SDS011;2332;38.646;-9.154;2024-01-15T02:45:40;59.87;;;6.47;;
4638;SDS011;2332;38.646;-9.154;2024-01-15T02:48:05;62.73;;;7.90;;
4638;SDS011;2332;38.646;-9.154;2024-01-15T02:50:31;47.10;;;8.43;;
4638;SDS011;2332;38.646;-9.154;2024-01-15T02:52:56;43.27;;;6.97;;
4638;SDS011;2332;38.646;-9.154;2024-01-15T02:55:21;66.97;;;7.93;;
4638;SDS011;2332;38.646;-9.154;2024-01-15T02:57:47;62.60;;;8.97;;
4638;SDS011;2332;38.646;-9.154;2024-01-15T03:00:12;55.80;;;7.63;;
4638;SDS011;2332;38.646;-9.154;2024-01-15T03:02:38;51.20;;;6.20;;
4638;SDS011;2332;38.646;-9.154;2024-01-15T03:05:08;51.77;;;7.33;;
4638;SDS011;2332;38.646;-9.154;2024-01-15T03:07:34;46.67;;;6.97;;
4638;SDS011;2332;38.646;-9.154;2024-01-15T03:09:59;65.77;;;7.27;;
4638;SDS011;2332;38.646;-9.154;2024-01-15T03:12:25;38.37;;;5.73;;
4638;SDS011;2332;38.646;-9.154;2024-01-15T03:14:50;45.97;;;6.80;;
4638;SDS011;2332;38.646;-9.154;2024-01-15T03:17:16;56.43;;;7.10;;
4638;SDS011;2332;38.646;-9.154;2024-01-15T03:19:41;45.10;;;7.07;;
4638;SDS011;2332;38.646;-9.154;2024-01-15T03:22:06;55.27;;;7.17;;
4638;SDS011;2332;38.646;-9.154;2024-01-15T03:24:34;54.67;;;7.70;;
4638;SDS011;2332;38.646;-9.154;2024-01-15T03:26:59;40.47;;;6.20;;
4638;SDS011;2332;38.646;-9.154;2024-01-15T03:29:25;50.57;;;7.40;;
4638;SDS011;2332;38.646;-9.154;2024-01-15T03:31:51;65.53;;;7.03;;
4638;SDS011;2332;38.646;-9.154;2024-01-15T03:34:16;59.20;;;8.00;;
4638;SDS011;2332;38.646;-9.154;2024-01-15T03:36:42;70.43;;;9.47;;
4638;SDS011;2332;38.646;-9.154;2024-01-15T03:39:07;78.47;;;9.87;;
4638;SDS011;2332;38.646;-9.154;2024-01-15T03:41:32;52.27;;;7.40;;
4638;SDS011;2332;38.646;-9.154;2024-01-15T03:43:58;65.50;;;7.60;;
4638;SDS011;2332;38.646;-9.154;2024-01-15T03:46:24;67.13;;;8.57;;
4638;SDS011;2332;38.646;-9.154;2024-01-15T03:48:49;50.50;;;6.90;;
4638;SDS011;2332;38.646;-9.154;2024-01-15T03:51:16;66.80;;;8.40;;
4638;SDS011;2332;38.646;-9.154;2024-01-15T03:53:42;47.73;;;7.73;;
4638;SDS011;2332;38.646;-9.154;2024-01-15T03:56:07;56.30;;;7.97;;
4638;SDS011;2332;38.646;-9.154;2024-01-15T03:58:33;42.73;;;7.07;;
4638;SDS011;2332;38.646;-9.154;2024-01-15T04:00:58;49.60;;;6.77;;
4638;SDS011;2332;38.646;-9.154;2024-01-15T04:03:23;65.87;;;8.27;;
4638;SDS011;2332;38.646;-9.154;2024-01-15T04:05:49;52.30;;;7.77;;
4638;SDS011;2332;38.646;-9.154;2024-01-15T04:08:14;73.13;;;8.30;;
4638;SDS011;2332;38.646;-9.154;2024-01-15T04:10:39;45.97;;;6.87;;
4638;SDS011;2332;38.646;-9.154;2024-01-15T04:13:05;63.97;;;8.33;;
4638;SDS011;2332;38.646;-9.154;2024-01-15T04:15:30;44.70;;;7.97;;
4638;SDS011;2332;38.646;-9.154;2024-01-15T04:17:56;61.50;;;9.90;;
4638;SDS011;2332;38.646;-9.154;2024-01-15T04:20:21;48.37;;;7.33;;
4638;SDS011;2332;38.646;-9.154;2024-01-15T04:22:46;52.40;;;8.70;;
4638;SDS011;2332;38.646;-9.154;2024-01-15T04:25:12;58.17;;;8.00;;
4638;SDS011;2332;38.646;-9.154;2024-01-15T04:27:37;48.00;;;8.83;;
4638;SDS011;2332;38.646;-9.154;2024-01-15T04:30:03;70.97;;;9.40;;
4638;SDS011;2332;38.646;-9.154;2024-01-15T04:32:28;57.97;;;7.90;;
4638;SDS011;2332;38.646;-9.154;2024-01-15T04:34:54;52.03;;;8.03;;
4638;SDS011;2332;38.646;-9.154;2024-01-15T04:37:20;48.17;;;7.50;;
4638;SDS011;2332;38.646;-9.154;2024-01-15T04:39:45;58.27;;;7.27;;
4638;SDS011;2332;38.646;-9.154;2024-01-15T04:42:11;48.50;;;8.17;;
4638;SDS011;2332;38.646;-9.154;2024-01-15T04:44:36;59.87;;;8.20;;
4638;SDS011;2332;38.646;-9.154;2024-01-15T04:47:04;54.17;;;8.53;;
4638;SDS011;2332;38.646;-9.154;2024-01-15T04:49:30;44.73;;;7.30;;
4638;SDS011;2332;38.646;-9.154;2024-01-15T04:51:55;47.07;;;6.80;;
4638;SDS011;2332;38.646;-9.154;2024-01-15T04:54:20;50.00;;;8.30;;
4638;SDS011;2332;38.646;-9.154;2024-01-15T04:56:46;59.03;;;7.60;;
4638;SDS011;2332;38.646;-9.154;2024-01-15T04:59:12;48.10;;;6.03;;
4638;SDS011;2332;38.646;-9.154;2024-01-15T05:01:37;44.57;;;7.30;;
4638;SDS011;2332;38.646;-9.154;2024-01-15T05:04:06;44.20;;;6.30;;
4638;SDS011;2332;38.646;-9.154;2024-01-15T05:06:34;46.07;;;7.03;;
4638;SDS011;2332;38.646;-9.154;2024-01-15T05:08:59;43.87;;;7.10;;
4638;SDS011;2332;38.646;-9.154;2024-01-15T05:11:25;52.23;;;7.33;;
4638;SDS011;2332;38.646;-9.154;2024-01-15T05:13:50;57.03;;;6.67;;
4638;SDS011;2332;38.646;-9.154;2024-01-15T05:16:15;63.77;;;6.47;;
4638;SDS011;2332;38.646;-9.154;2024-01-15T05:18:41;52.47;;;7.53;;
4638;SDS011;2332;38.646;-9.154;2024-01-15T05:21:08;59.00;;;8.03;;
4638;SDS011;2332;38.646;-9.154;2024-01-15T05:23:33;50.07;;;6.43;;
4638;SDS011;2332;38.646;-9.154;2024-01-15T05:25:59;39.60;;;7.17;;
4638;SDS011;2332;38.646;-9.154;2024-01-15T05:28:24;76.87;;;8.10;;
4638;SDS011;2332;38.646;-9.154;2024-01-15T05:30:50;46.93;;;7.43;;
4638;SDS011;2332;38.646;-9.154;2024-01-15T05:33:16;64.03;;;7.37;;
4638;SDS011;2332;38.646;-9.154;2024-01-15T05:35:41;56.27;;;8.07;;
4638;SDS011;2332;38.646;-9.154;2024-01-15T05:38:07;50.60;;;6.57;;
4638;SDS011;2332;38.646;-9.154;2024-01-15T05:40:32;42.00;;;6.00;;
4638;SDS011;2332;38.646;-9.154;2024-01-15T05:42:58;47.97;;;7.40;;
4638;SDS011;2332;38.646;-9.154;2024-01-15T05:45:23;50.67;;;6.60;;
4638;SDS011;2332;38.646;-9.154;2024-01-15T05:47:48;37.70;;;6.40;;
4638;SDS011;2332;38.646;-9.154;2024-01-15T05:50:14;37.47;;;6.03;;
4638;SDS011;2332;38.646;-9.154;2024-01-15T05:52:39;50.30;;;7.07;;
4638;SDS011;2332;38.646;-9.154;2024-01-15T05:55:05;59.43;;;6.80;;
4638;SDS011;2332;38.646;-9.154;2024-01-15T05:57:30;40.70;;;5.93;;
4638;SDS011;2332;38.646;-9.154;2024-01-15T05:59:56;40.97;;;5.90;;
4638;SDS011;2332;38.646;-9.154;2024-01-15T06:02:21;39.70;;;6.57;;
4638;SDS011;2332;38.646;-9.154;2024-01-15T06:04:46;44.73;;;6.60;;
4638;SDS011;2332;38.646;-9.154;2024-01-15T06:07:12;36.83;;;5.40;;
4638;SDS011;2332;38.646;-9.154;2024-01-15T06:09:37;40.37;;;6.17;;
4638;SDS011;2332;38.646;-9.154;2024-01-15T06:12:03;45.57;;;7.63;;
4638;SDS011;2332;38.646;-9.154;2024-01-15T06:14:29;44.73;;;7.43;;
4638;SDS011;2332;38.646;-9.154;2024-01-15T06:16:54;42.97;;;6.77;;
4638;SDS011;2332;38.646;-9.154;2024-01-15T06:19:20;42.27;;;7.20;;
4638;SDS011;2332;38.646;-9.154;2024-01-15T06:21:45;53.40;;;7.77;;
4638;SDS011;2332;38.646;-9.154;2024-01-15T06:24:10;56.77;;;7.87;;
4638;SDS011;2332;38.646;-9.154;2024-01-15T06:26:36;61.50;;;8.67;;
4638;SDS011;2332;38.646;-9.154;2024-01-15T06:29:01;46.83;;;8.33;;
4638;SDS011;2332;38.646;-9.154;2024-01-15T06:31:28;48.23;;;8.50;;
4638;SDS011;2332;38.646;-9.154;2024-01-15T06:33:53;57.20;;;7.03;;
4638;SDS011;2332;38.646;-9.154;2024-01-15T06:36:19;60.10;;;8.20;;
4638;SDS011;2332;38.646;-9.154;2024-01-15T06:38:44;55.03;;;7.23;;
4638;SDS011;2332;38.646;-9.154;2024-01-15T06:41:10;48.47;;;6.47;;
4638;SDS011;2332;38.646;-9.154;2024-01-15T06:43:35;63.70;;;7.17;;
4638;SDS011;2332;38.646;-9.154;2024-01-15T06:46:00;34.57;;;6.60;;
4638;SDS011;2332;38.646;-9.154;2024-01-15T06:48:26;45.50;;;6.70;;
4638;SDS011;2332;38.646;-9.154;2024-01-15T06:50:51;50.00;;;7.40;;
4638;SDS011;2332;38.646;-9.154;2024-01-15T06:53:17;42.10;;;6.43;;
4638;SDS011;2332;38.646;-9.154;2024-01-15T06:55:42;49.57;;;7.67;;
4638;SDS011;2332;38.646;-9.154;2024-01-15T06:58:07;36.67;;;6.70;;
4638;SDS011;2332;38.646;-9.154;2024-01-15T07:00:33;41.43;;;6.63;;
4638;SDS011;2332;38.646;-9.154;2024-01-15T07:02:58;38.43;;;6.13;;
4638;SDS011;2332;38.646;-9.154;2024-01-15T07:05:23;37.70;;;5.63;;
4638;SDS011;2332;38.646;-9.154;2024-01-15T07:07:49;39.03;;;5.67;;
4638;SDS011;2332;38.646;-9.154;2024-01-15T07:10:14;46.53;;;6.43;;
4638;SDS011;2332;38.646;-9.154;2024-01-15T07:12:43;38.10;;;6.00;;
4638;SDS011;2332;38.646;-9.154;2024-01-15T07:15:09;39.27;;;5.93;;
4638;SDS011;2332;38.646;-9.154;2024-01-15T07:17:34;42.83;;;5.70;;
4638;SDS011;2332;38.646;-9.154;2024-01-15T07:20:00;35.37;;;6.00;;
4638;SDS011;2332;38.646;-9.154;2024-01-15T07:22:25;27.60;;;4.53;;
4638;SDS011;2332;38.646;-9.154;2024-01-15T07:24:51;28.90;;;5.87;;
4638;SDS011;2332;38.646;-9.154;2024-01-15T07:27:16;23.90;;;4.37;;
4638;SDS011;2332;38.646;-9.154;2024-01-15T07:29:41;36.20;;;4.93;;
4638;SDS011;2332;38.646;-9.154;2024-01-15T07:32:08;23.97;;;5.67;;
4638;SDS011;2332;38.646;-9.154;2024-01-15T07:34:33;35.67;;;5.57;;
4638;SDS011;2332;38.646;-9.154;2024-01-15T07:36:59;34.80;;;5.40;;
4638;SDS011;2332;38.646;-9.154;2024-01-15T07:39:24;41.20;;;5.50;;
4638;SDS011;2332;38.646;-9.154;2024-01-15T07:41:53;49.73;;;4.73;;
4638;SDS011;2332;38.646;-9.154;2024-01-15T07:44:18;30.60;;;5.37;;
4638;SDS011;2332;38.646;-9.154;2024-01-15T07:46:44;31.30;;;5.30;;
4638;SDS011;2332;38.646;-9.154;2024-01-15T07:49:10;30.63;;;5.00;;
4638;SDS011;2332;38.646;-9.154;2024-01-15T07:51:35;41.37;;;6.67;;
4638;SDS011;2332;38.646;-9.154;2024-01-15T07:54:01;32.73;;;4.83;;
4638;SDS011;2332;38.646;-9.154;2024-01-15T07:56:27;38.00;;;5.97;;
4638;SDS011;2332;38.646;-9.154;2024-01-15T07:58:52;34.50;;;4.87;;
4638;SDS011;2332;38.646;-9.154;2024-01-15T08:01:18;35.83;;;5.20;;
4638;SDS011;2332;38.646;-9.154;2024-01-15T08:03:43;29.80;;;5.43;;
4638;SDS011;2332;38.646;-9.154;2024-01-15T08:06:09;34.33;;;5.93;;
4638;SDS011;2332;38.646;-9.154;2024-01-15T08:08:35;22.10;;;4.70;;
4638;SDS011;2332;38.646;-9.154;2024-01-15T08:11:00;26.80;;;4.30;;
4638;SDS011;2332;38.646;-9.154;2024-01-15T08:13:26;20.10;;;4.53;;
4638;SDS011;2332;38.646;-9.154;2024-01-15T08:15:51;21.57;;;5.30;;
4638;SDS011;2332;38.646;-9.154;2024-01-15T08:18:17;43.53;;;4.90;;
4638;SDS011;2332;38.646;-9.154;2024-01-15T08:20:42;31.43;;;5.43;;
4638;SDS011;2332;38.646;-9.154;2024-01-15T08:23:08;34.73;;;7.57;;
4638;SDS011;2332;38.646;-9.154;2024-01-15T08:25:33;38.47;;;5.53;;
4638;SDS011;2332;38.646;-9.154;2024-01-15T08:27:59;36.17;;;6.67;;
4638;SDS011;2332;38.646;-9.154;2024-01-15T08:30:24;39.33;;;6.90;;
4638;SDS011;2332;38.646;-9.154;2024-01-15T08:32:53;55.87;;;7.83;;
4638;SDS011;2332;38.646;-9.154;2024-01-15T08:35:19;37.40;;;7.80;;
4638;SDS011;2332;38.646;-9.154;2024-01-15T08:37:48;37.47;;;6.50;;
4638;SDS011;2332;38.646;-9.154;2024-01-15T08:40:14;42.33;;;7.03;;
4638;SDS011;2332;38.646;-9.154;2024-01-15T08:42:39;57.83;;;7.10;;
4638;SDS011;2332;38.646;-9.154;2024-01-15T08:45:04;33.23;;;6.70;;
4638;SDS011;2332;38.646;-9.154;2024-01-15T08:47:30;42.73;;;6.47;;
4638;SDS011;2332;38.646;-9.154;2024-01-15T08:49:55;35.67;;;5.50;;
4638;SDS011;2332;38.646;-9.154;2024-01-15T08:52:21;33.07;;;5.37;;
4638;SDS011;2332;38.646;-9.154;2024-01-15T08:54:46;38.90;;;7.13;;
4638;SDS011;2332;38.646;-9.154;2024-01-15T08:57:12;32.23;;;6.03;;
4638;SDS011;2332;38.646;-9.154;2024-01-15T08:59:37;36.93;;;6.20;;
4638;SDS011;2332;38.646;-9.154;2024-01-15T09:02:03;22.07;;;5.50;;
4638;SDS011;2332;38.646;-9.154;2024-01-15T09:04:29;35.87;;;6.40;;
4638;SDS011;2332;38.646;-9.154;2024-01-15T09:06:54;35.90;;;6.97;;
4638;SDS011;2332;38.646;-9.154;2024-01-15T09:09:20;39.27;;;8.73;;
4638;SDS011;2332;38.646;-9.154;2024-01-15T09:11:45;42.63;;;9.60;;
4638;SDS011;2332;38.646;-9.154;2024-01-15T09:14:10;33.73;;;8.50;;
4638;SDS011;2332;38.646;-9.154;2024-01-15T09:16:36;43.07;;;7.80;;
4638;SDS011;2332;38.646;-9.154;2024-01-15T09:19:01;31.27;;;7.20;;
4638;SDS011;2332;38.646;-9.154;2024-01-15T09:21:28;27.10;;;6.90;;
4638;SDS011;2332;38.646;-9.154;2024-01-15T09:23:53;31.53;;;6.87;;
4638;SDS011;2332;38.646;-9.154;2024-01-15T09:26:19;41.13;;;6.73;;
4638;SDS011;2332;38.646;-9.154;2024-01-15T09:28:44;46.90;;;9.13;;
4638;SDS011;2332;38.646;-9.154;2024-01-15T09:31:11;37.50;;;7.80;;
4638;SDS011;2332;38.646;-9.154;2024-01-15T09:33:36;39.80;;;8.90;;
4638;SDS011;2332;38.646;-9.154;2024-01-15T09:36:02;30.60;;;6.33;;
4638;SDS011;2332;38.646;-9.154;2024-01-15T09:38:29;31.83;;;6.87;;
4638;SDS011;2332;38.646;-9.154;2024-01-15T09:40:54;25.47;;;5.90;;
4638;SDS011;2332;38.646;-9.154;2024-01-15T09:43:20;29.97;;;8.23;;
4638;SDS011;2332;38.646;-9.154;2024-01-15T09:45:45;35.53;;;7.70;;
4638;SDS011;2332;38.646;-9.154;2024-01-15T09:48:11;30.23;;;6.27;;
4638;SDS011;2332;38.646;-9.154;2024-01-15T09:50:37;32.23;;;7.30;;
4638;SDS011;2332;38.646;-9.154;2024-01-15T09:53:03;41.10;;;6.37;;
4638;SDS011;2332;38.646;-9.154;2024-01-15T09:55:29;31.07;;;6.00;;
4638;SDS011;2332;38.646;-9.154;2024-01-15T09:57:54;25.73;;;7.60;;
4638;SDS011;2332;38.646;-9.154;2024-01-15T10:00:20;41.90;;;8.00;;
4638;SDS011;2332;38.646;-9.154;2024-01-15T10:02:46;28.93;;;6.20;;
4638;SDS011;2332;38.646;-9.154;2024-01-15T10:05:11;26.63;;;6.20;;
4638;SDS011;2332;38.646;-9.154;2024-01-15T10:07:37;24.60;;;5.10;;
4638;SDS011;2332;38.646;-9.154;2024-01-15T10:10:03;39.77;;;6.57;;
4638;SDS011;2332;38.646;-9.154;2024-01-15T10:12:29;24.80;;;6.30;;
4638;SDS011;2332;38.646;-9.154;2024-01-15T10:14:55;33.90;;;5.80;;
4638;SDS011;2332;38.646;-9.154;2024-01-15T10:17:21;37.40;;;5.93;;
4638;SDS011;2332;38.646;-9.154;2024-01-15T10:19:46;18.87;;;4.80;;
4638;SDS011;2332;38.646;-9.154;2024-01-15T10:22:13;31.63;;;5.50;;
4638;SDS011;2332;38.646;-9.154;2024-01-15T10:24:39;32.47;;;6.07;;
4638;SDS011;2332;38.646;-9.154;2024-01-15T10:27:05;33.23;;;5.70;;
4638;SDS011;2332;38.646;-9.154;2024-01-15T10:29:32;21.53;;;5.30;;
4638;SDS011;2332;38.646;-9.154;2024-01-15T10:31:57;31.97;;;5.13;;
4638;SDS011;2332;38.646;-9.154;2024-01-15T10:34:23;28.50;;;5.53;;
4638;SDS011;2332;38.646;-9.154;2024-01-15T10:36:49;37.67;;;5.50;;
4638;SDS011;2332;38.646;-9.154;2024-01-15T10:39:20;42.80;;;5.10;;
4638;SDS011;2332;38.646;-9.154;2024-01-15T10:41:45;31.97;;;5.63;;
4638;SDS011;2332;38.646;-9.154;2024-01-15T10:44:11;37.50;;;6.33;;
4638;SDS011;2332;38.646;-9.154;2024-01-15T10:46:36;23.63;;;4.93;;
4638;SDS011;2332;38.646;-9.154;2024-01-15T10:49:02;32.37;;;5.50;;
4638;SDS011;2332;38.646;-9.154;2024-01-15T10:51:27;42.13;;;5.93;;
4638;SDS011;2332;38.646;-9.154;2024-01-15T10:53:53;27.83;;;4.90;;
4638;SDS011;2332;38.646;-9.154;2024-01-15T10:56:20;33.83;;;6.67;;
4638;SDS011;2332;38.646;-9.154;2024-01-15T10:58:46;38.00;;;7.17;;
4638;SDS011;2332;38.646;-9.154;2024-01-15T11:01:12;42.07;;;6.07;;
4638;SDS011;2332;38.646;-9.154;2024-01-15T11:03:38;33.33;;;5.63;;
4638;SDS011;2332;38.646;-9.154;2024-01-15T11:06:08;37.10;;;6.30;;
4638;SDS011;2332;38.646;-9.154;2024-01-15T11:08:41;36.10;;;6.80;;
4638;SDS011;2332;38.646;-9.154;2024-01-15T11:11:07;32.77;;;6.80;;
4638;SDS011;2332;38.646;-9.154;2024-01-15T11:16:08;37.50;;;6.30;;
4638;SDS011;2332;38.646;-9.154;2024-01-15T11:18:37;39.57;;;6.30;;
4638;SDS011;2332;38.646;-9.154;2024-01-15T11:23:47;41.60;;;5.77;;
4638;SDS011;2332;38.646;-9.154;2024-01-15T11:28:56;40.50;;;6.67;;
4638;SDS011;2332;38.646;-9.154;2024-01-15T11:31:29;49.23;;;6.47;;
4638;SDS011;2332;38.646;-9.154;2024-01-15T11:33:54;42.27;;;6.67;;
4638;SDS011;2332;38.646;-9.154;2024-01-15T11:37:05;32.90;;;6.20;;
4638;SDS011;2332;38.646;-9.154;2024-01-15T11:41:49;31.20;;;5.87;;
4638;SDS011;2332;38.646;-9.154;2024-01-15T11:44:15;37.00;;;6.47;;
4638;SDS011;2332;38.646;-9.154;2024-01-15T11:46:40;41.43;;;7.23;;
4638;SDS011;2332;38.646;-9.154;2024-01-15T11:49:11;37.23;;;6.43;;
4638;SDS011;2332;38.646;-9.154;2024-01-15T11:51:43;32.60;;;5.90;;
4638;SDS011;2332;38.646;-9.154;2024-01-15T11:54:08;34.63;;;5.23;;
4638;SDS011;2332;38.646;-9.154;2024-01-15T11:56:35;38.43;;;6.80;;
4638;SDS011;2332;38.646;-9.154;2024-01-15T11:59:01;45.23;;;6.47;;
4638;SDS011;2332;38.646;-9.154;2024-01-15T12:01:27;31.53;;;5.70;;
4638;SDS011;2332;38.646;-9.154;2024-01-15T12:03:52;40.03;;;5.50;;
4638;SDS011;2332;38.646;-9.154;2024-01-15T12:06:18;29.87;;;4.93;;
4638;SDS011;2332;38.646;-9.154;2024-01-15T12:08:43;30.80;;;5.67;;
4638;SDS011;2332;38.646;-9.154;2024-01-15T12:11:10;33.43;;;5.93;;
4638;SDS011;2332;38.646;-9.154;2024-01-15T12:13:38;45.73;;;6.43;;
4638;SDS011;2332;38.646;-9.154;2024-01-15T12:16:04;36.37;;;6.20;;
4638;SDS011;2332;38.646;-9.154;2024-01-15T12:18:29;33.13;;;6.37;;
4638;SDS011;2332;38.646;-9.154;2024-01-15T12:20:55;42.07;;;5.23;;
4638;SDS011;2332;38.646;-9.154;2024-01-15T12:23:20;27.60;;;5.33;;
4638;SDS011;2332;38.646;-9.154;2024-01-15T12:25:46;38.70;;;5.70;;
4638;SDS011;2332;38.646;-9.154;2024-01-15T12:28:12;26.87;;;6.53;;
4638;SDS011;2332;38.646;-9.154;2024-01-15T12:30:37;30.80;;;5.90;;
4638;SDS011;2332;38.646;-9.154;2024-01-15T12:33:04;42.50;;;6.03;;
4638;SDS011;2332;38.646;-9.154;2024-01-15T12:35:29;36.87;;;5.80;;
4638;SDS011;2332;38.646;-9.154;2024-01-15T12:37:55;26.67;;;4.73;;
4638;SDS011;2332;38.646;-9.154;2024-01-15T12:40:21;22.70;;;5.57;;
4638;SDS011;2332;38.646;-9.154;2024-01-15T12:42:46;28.43;;;5.10;;
4638;SDS011;2332;38.646;-9.154;2024-01-15T12:45:12;36.00;;;5.57;;
4638;SDS011;2332;38.646;-9.154;2024-01-15T12:47:38;31.43;;;5.70;;
4638;SDS011;2332;38.646;-9.154;2024-01-15T12:50:10;35.27;;;5.70;;
4638;SDS011;2332;38.646;-9.154;2024-01-15T12:52:35;16.67;;;4.27;;
4638;SDS011;2332;38.646;-9.154;2024-01-15T12:55:04;22.73;;;4.93;;
4638;SDS011;2332;38.646;-9.154;2024-01-15T12:57:29;32.63;;;6.13;;
4638;SDS011;2332;38.646;-9.154;2024-01-15T12:59:54;24.70;;;4.40;;
4638;SDS011;2332;38.646;-9.154;2024-01-15T13:02:20;29.30;;;5.43;;
4638;SDS011;2332;38.646;-9.154;2024-01-15T13:04:45;23.90;;;4.90;;
4638;SDS011;2332;38.646;-9.154;2024-01-15T13:07:10;25.07;;;4.80;;
4638;SDS011;2332;38.646;-9.154;2024-01-15T13:09:36;19.10;;;4.50;;
4638;SDS011;2332;38.646;-9.154;2024-01-15T13:12:02;28.27;;;4.90;;
4638;SDS011;2332;38.646;-9.154;2024-01-15T13:14:28;38.10;;;5.63;;
4638;SDS011;2332;38.646;-9.154;2024-01-15T13:16:53;35.33;;;4.57;;
4638;SDS011;2332;38.646;-9.154;2024-01-15T13:19:19;28.43;;;4.57;;
4638;SDS011;2332;38.646;-9.154;2024-01-15T13:21:44;24.97;;;5.30;;
4638;SDS011;2332;38.646;-9.154;2024-01-15T13:24:10;28.67;;;4.90;;
4638;SDS011;2332;38.646;-9.154;2024-01-15T13:26:36;28.60;;;5.20;;
4638;SDS011;2332;38.646;-9.154;2024-01-15T13:29:04;30.63;;;4.83;;
4638;SDS011;2332;38.646;-9.154;2024-01-15T13:31:30;33.40;;;4.70;;
4638;SDS011;2332;38.646;-9.154;2024-01-15T13:33:55;21.70;;;4.07;;
4638;SDS011;2332;38.646;-9.154;2024-01-15T13:36:21;33.40;;;5.50;;
4638;SDS011;2332;38.646;-9.154;2024-01-15T13:38:49;30.60;;;5.60;;
4638;SDS011;2332;38.646;-9.154;2024-01-15T13:41:14;27.00;;;4.83;;
4638;SDS011;2332;38.646;-9.154;2024-01-15T13:43:40;26.80;;;5.87;;
4638;SDS011;2332;38.646;-9.154;2024-01-15T13:46:05;35.00;;;5.20;;
4638;SDS011;2332;38.646;-9.154;2024-01-15T13:48:31;32.23;;;5.60;;
4638;SDS011;2332;38.646;-9.154;2024-01-15T13:50:59;30.53;;;6.30;;
4638;SDS011;2332;38.646;-9.154;2024-01-15T13:53:25;33.60;;;6.33;;
4638;SDS011;2332;38.646;-9.154;2024-01-15T13:55:51;36.33;;;5.67;;
4638;SDS011;2332;38.646;-9.154;2024-01-15T13:58:16;27.90;;;5.23;;
4638;SDS011;2332;38.646;-9.154;2024-01-15T14:00:43;39.37;;;5.10;;
4638;SDS011;2332;38.646;-9.154;2024-01-15T14:03:09;27.33;;;4.33;;
4638;SDS011;2332;38.646;-9.154;2024-01-15T14:05:34;33.37;;;5.20;;
4638;SDS011;2332;38.646;-9.154;2024-01-15T14:08:00;32.80;;;5.30;;
4638;SDS011;2332;38.646;-9.154;2024-01-15T14:10:25;44.17;;;6.00;;
4638;SDS011;2332;38.646;-9.154;2024-01-15T14:12:50;33.50;;;5.70;;
4638;SDS011;2332;38.646;-9.154;2024-01-15T14:15:16;27.27;;;5.00;;
4638;SDS011;2332;38.646;-9.154;2024-01-15T14:17:41;33.50;;;5.63;;
4638;SDS011;2332;38.646;-9.154;2024-01-15T14:20:07;39.90;;;6.20;;
4638;SDS011;2332;38.646;-9.154;2024-01-15T14:22:34;46.57;;;6.53;;
4638;SDS011;2332;38.646;-9.154;2024-01-15T14:25:00;24.30;;;4.97;;
4638;SDS011;2332;38.646;-9.154;2024-01-15T14:27:26;25.30;;;4.57;;
4638;SDS011;2332;38.646;-9.154;2024-01-15T14:29:51;31.00;;;5.13;;
4638;SDS011;2332;38.646;-9.154;2024-01-15T14:32:16;34.47;;;7.23;;
4638;SDS011;2332;38.646;-9.154;2024-01-15T14:34:42;36.93;;;6.70;;
4638;SDS011;2332;38.646;-9.154;2024-01-15T14:37:08;32.37;;;5.70;;
4638;SDS011;2332;38.646;-9.154;2024-01-15T14:39:33;31.40;;;5.60;;
4638;SDS011;2332;38.646;-9.154;2024-01-15T14:41:59;36.97;;;6.83;;
4638;SDS011;2332;38.646;-9.154;2024-01-15T14:44:25;30.27;;;5.50;;
4638;SDS011;2332;38.646;-9.154;2024-01-15T14:46:50;32.13;;;6.97;;